Time;durP1;ratioP1;P1;durP2;ratioP2;P2;SDS_P1;SDS_P2;PMS_P1;PMS_P2;Temp;Humidity;BMP_temperature;BMP_pressure;BME280_temperature;BME280_humidity;BME280_pressure;Samples;Min_cycle;Max_cycle;Signal;HPM_P1;HPM_P2
2021/06/28 00:01:31;;;;;;;11.93;3.80;;;14.80;99.90;;;;;;5013708;28;20084;-89
2021/06/28 00:03:57;;;;;;;8.50;4.07;;;14.80;99.90;;;;;;4986998;28;20049;-89
2021/06/28 00:06:23;;;;;;;8.43;3.95;;;14.80;99.90;;;;;;4995678;28;20045;-90
2021/06/28 00:08:49;;;;;;;6.93;4.10;;;14.70;99.90;;;;;;5030243;28;20124;-89
2021/06/28 00:11:15;;;;;;;14.10;4.30;;;14.70;99.90;;;;;;5032076;28;20037;-88
2021/06/28 00:13:43;;;;;;;16.35;5.70;;;14.70;99.90;;;;;;5015071;28;20045;-89
2021/06/28 00:16:10;;;;;;;10.30;4.75;;;14.70;99.90;;;;;;5017650;28;20049;-90
2021/06/28 00:18:36;;;;;;;9.23;4.82;;;14.70;99.90;;;;;;5015019;28;20041;-91
2021/06/28 00:21:03;;;;;;;10.57;4.22;;;14.70;99.90;;;;;;5014564;28;20419;-89
2021/06/28 00:23:29;;;;;;;7.20;4.22;;;14.70;99.90;;;;;;4998325;28;20099;-89
2021/06/28 00:25:55;;;;;;;10.25;4.28;;;14.60;99.90;;;;;;5001944;28;20037;-92
2021/06/28 00:28:21;;;;;;;13.10;4.57;;;14.60;99.90;;;;;;4999726;28;20445;-90
2021/06/28 00:30:48;;;;;;;10.68;4.82;;;14.60;99.90;;;;;;4998663;28;20132;-89
2021/06/28 00:33:16;;;;;;;11.05;4.80;;;14.60;99.90;;;;;;5014250;28;20048;-89
2021/06/28 00:35:43;;;;;;;9.00;4.65;;;14.60;99.90;;;;;;5030820;28;20049;-89
2021/06/28 00:38:10;;;;;;;7.00;4.28;;;14.60;99.90;;;;;;5031753;28;20045;-89
2021/06/28 00:40:38;;;;;;;10.70;4.22;;;14.60;99.90;;;;;;5011094;28;20084;-91
2021/06/28 00:43:05;;;;;;;11.02;4.85;;;14.60;99.90;;;;;;5025027;28;20041;-91
2021/06/28 00:45:34;;;;;;;10.02;5.30;;;14.60;99.90;;;;;;5041091;28;20041;-90
2021/06/28 00:48:08;;;;;;;8.32;4.22;;;14.60;99.90;;;;;;5037566;28;20057;-89
2021/06/28 00:50:41;;;;;;;9.93;5.18;;;14.60;99.90;;;;;;5020988;28;20102;-91
2021/06/28 00:53:09;;;;;;;12.13;5.32;;;14.60;99.90;;;;;;5032853;28;20124;-90
2021/06/28 00:55:36;;;;;;;13.00;5.65;;;14.60;99.90;;;;;;5043418;28;20045;-89
2021/06/28 00:58:03;;;;;;;11.52;5.93;;;14.60;99.90;;;;;;5002490;28;20046;-90
2021/06/28 01:00:29;;;;;;;7.35;5.15;;;14.60;99.90;;;;;;5034762;28;20061;-90
2021/06/28 01:02:56;;;;;;;12.40;5.50;;;14.60;99.90;;;;;;5003788;28;20641;-90
2021/06/28 01:05:24;;;;;;;7.95;4.78;;;14.60;99.90;;;;;;5012374;28;20481;-91
2021/06/28 01:07:51;;;;;;;9.85;5.82;;;14.60;99.90;;;;;;5020518;28;20096;-90
2021/06/28 01:10:20;;;;;;;11.82;6.60;;;14.60;99.90;;;;;;5015564;28;20041;-90
2021/06/28 01:12:49;;;;;;;9.48;5.78;;;14.60;99.90;;;;;;5030935;28;20116;-91
2021/06/28 01:15:16;;;;;;;12.17;7.03;;;14.70;99.90;;;;;;5023789;28;20053;-89
2021/06/28 01:17:43;;;;;;;12.00;7.05;;;14.70;99.90;;;;;;5030986;28;20037;-91
2021/06/28 01:20:10;;;;;;;13.70;7.43;;;14.70;99.90;;;;;;5031078;28;20048;-90
2021/06/28 01:22:39;;;;;;;11.88;7.25;;;14.80;99.90;;;;;;5032600;28;20128;-89
2021/06/28 01:25:07;;;;;;;13.70;7.57;;;14.80;99.90;;;;;;5015826;28;20432;-90
2021/06/28 01:27:34;;;;;;;11.40;7.72;;;14.80;99.90;;;;;;5021863;28;20037;-90
2021/06/28 01:30:00;;;;;;;11.55;7.18;;;14.80;99.90;;;;;;5021658;28;20061;-91
2021/06/28 01:32:27;;;;;;;10.73;6.85;;;14.80;99.90;;;;;;5021677;28;20052;-90
2021/06/28 01:34:53;;;;;;;16.50;6.45;;;14.90;99.90;;;;;;5018815;28;20038;-91
2021/06/28 01:37:18;;;;;;;13.07;6.50;;;14.90;99.90;;;;;;5015080;28;20043;-91
2021/06/28 01:39:45;;;;;;;14.05;6.95;;;14.90;99.90;;;;;;5032634;28;20388;-90
2021/06/28 01:42:11;;;;;;;16.80;7.85;;;14.90;99.90;;;;;;5019632;28;20045;-91
2021/06/28 01:44:37;;;;;;;10.40;7.53;;;14.90;99.90;;;;;;5021367;28;20045;-91
2021/06/28 01:47:03;;;;;;;16.63;7.57;;;14.90;99.90;;;;;;5018666;28;20057;-93
2021/06/28 01:49:29;;;;;;;14.88;7.50;;;15.00;99.90;;;;;;5034425;28;20073;-92
2021/06/28 01:51:56;;;;;;;17.50;7.90;;;15.00;99.90;;;;;;5017802;28;20128;-90
2021/06/28 01:54:22;;;;;;;9.55;6.43;;;15.00;99.90;;;;;;5033740;28;20616;-90
2021/06/28 01:56:48;;;;;;;9.85;6.55;;;14.90;99.90;;;;;;5016220;28;20121;-91
2021/06/28 01:59:14;;;;;;;12.23;6.43;;;15.00;99.90;;;;;;4999556;28;20120;-90
2021/06/28 02:01:39;;;;;;;11.27;6.80;;;15.00;99.90;;;;;;5016879;28;20049;-92
2021/06/28 02:04:05;;;;;;;14.45;6.88;;;14.90;99.90;;;;;;5016985;28;20059;-90
2021/06/28 02:06:31;;;;;;;10.43;6.95;;;14.90;99.90;;;;;;5035222;28;20045;-91
2021/06/28 02:08:57;;;;;;;13.07;6.63;;;15.00;99.90;;;;;;5017230;28;20400;-90
2021/06/28 02:11:23;;;;;;;9.05;5.80;;;15.00;99.90;;;;;;5017100;28;20048;-90
2021/06/28 02:13:49;;;;;;;14.70;6.68;;;15.00;99.90;;;;;;5017367;28;20509;-89
2021/06/28 02:16:15;;;;;;;13.18;6.75;;;14.90;99.90;;;;;;4984477;28;20493;-91
2021/06/28 02:18:41;;;;;;;10.65;7.00;;;14.90;99.90;;;;;;5022198;28;20037;-89
2021/06/28 02:21:07;;;;;;;14.27;6.72;;;14.90;99.90;;;;;;5002284;28;20064;-90
2021/06/28 02:23:38;;;;;;;12.93;6.18;;;14.90;99.90;;;;;;5000829;28;20132;-93
2021/06/28 02:26:11;;;;;;;12.32;6.18;;;14.90;99.90;;;;;;5032095;28;20053;-94
2021/06/28 02:28:45;;;;;;;13.48;6.68;;;14.90;99.90;;;;;;5032906;28;20092;-90
2021/06/28 02:31:14;;;;;;;18.27;6.60;;;14.90;99.90;;;;;;5001923;28;20065;-90
2021/06/28 02:33:42;;;;;;;10.68;6.32;;;14.90;99.90;;;;;;4999047;28;20394;-90
2021/06/28 02:36:08;;;;;;;14.15;5.90;;;14.90;99.90;;;;;;5016231;28;20053;-91
2021/06/28 02:38:36;;;;;;;12.73;6.20;;;14.90;99.90;;;;;;5009995;28;20092;-90
2021/06/28 02:41:03;;;;;;;6.97;5.75;;;14.90;99.90;;;;;;5026781;28;20068;-90
2021/06/28 02:43:30;;;;;;;9.55;5.82;;;14.80;99.90;;;;;;5018390;28;20041;-90
2021/06/28 02:45:56;;;;;;;12.88;6.28;;;14.80;99.90;;;;;;5012389;28;20046;-92
2021/06/28 02:48:23;;;;;;;18.30;6.05;;;14.80;99.90;;;;;;5010729;28;20873;-90
2021/06/28 02:50:49;;;;;;;17.67;6.30;;;14.80;99.90;;;;;;5014040;28;20493;-90
2021/06/28 02:53:17;;;;;;;11.85;6.32;;;14.70;99.90;;;;;;5013695;28;20069;-89
2021/06/28 02:55:44;;;;;;;20.45;6.28;;;14.80;99.90;;;;;;5013966;28;20509;-90
2021/06/28 02:58:10;;;;;;;12.57;5.90;;;14.70;99.90;;;;;;5009440;28;20051;-89
2021/06/28 03:00:36;;;;;;;15.63;6.72;;;14.70;99.90;;;;;;5012386;28;20054;-91
2021/06/28 03:03:02;;;;;;;8.85;6.22;;;14.70;99.90;;;;;;4977309;28;20042;-90
2021/06/28 03:05:28;;;;;;;12.02;6.25;;;14.70;99.90;;;;;;5027684;28;20794;-89
2021/06/28 03:07:54;;;;;;;8.77;5.57;;;14.70;99.90;;;;;;5013250;28;20046;-89
2021/06/28 03:10:20;;;;;;;10.57;7.32;;;14.70;99.90;;;;;;5012348;28;20050;-91
2021/06/28 03:12:46;;;;;;;8.30;5.53;;;14.70;99.90;;;;;;5011253;28;20034;-90
2021/06/28 03:15:15;;;;;;;14.82;6.68;;;14.70;99.90;;;;;;4996176;28;20049;-89
2021/06/28 03:17:42;;;;;;;16.45;6.70;;;14.70;99.90;;;;;;5013621;28;20120;-89
2021/06/28 03:20:11;;;;;;;17.50;7.63;;;14.70;99.90;;;;;;5005078;28;20388;-93
2021/06/28 03:22:39;;;;;;;15.50;7.30;;;14.70;99.90;;;;;;5017870;28;20042;-89
2021/06/28 03:25:08;;;;;;;10.23;7.57;;;14.70;99.90;;;;;;5023537;28;20485;-90
2021/06/28 03:27:34;;;;;;;13.35;6.72;;;14.70;99.90;;;;;;5028565;28;20044;-90
2021/06/28 03:30:05;;;;;;;13.70;8.00;;;14.70;99.90;;;;;;5013515;28;20056;-91
2021/06/28 03:32:31;;;;;;;11.38;6.25;;;14.70;99.90;;;;;;5011987;28;20045;-90
2021/06/28 03:34:57;;;;;;;18.30;7.80;;;14.70;99.90;;;;;;5012197;28;20394;-90
2021/06/28 03:37:23;;;;;;;13.93;6.78;;;14.80;99.90;;;;;;4995598;28;20049;-90
2021/06/28 03:39:49;;;;;;;16.23;7.20;;;14.70;99.90;;;;;;4995551;28;20046;-89
2021/06/28 03:42:15;;;;;;;14.32;6.25;;;14.80;99.90;;;;;;5000564;28;20114;-89
2021/06/28 03:44:40;;;;;;;15.98;6.97;;;14.80;99.90;;;;;;4991133;28;20042;-89
2021/06/28 03:47:07;;;;;;;14.13;6.90;;;14.80;99.90;;;;;;5027652;28;20053;-89
2021/06/28 03:49:33;;;;;;;8.50;5.03;;;14.80;99.90;;;;;;5011333;28;20080;-89
2021/06/28 03:51:59;;;;;;;9.20;5.70;;;14.80;99.90;;;;;;5017194;28;20987;-90
2021/06/28 03:54:25;;;;;;;10.43;6.43;;;14.90;99.90;;;;;;5017650;28;20037;-90
2021/06/28 03:56:51;;;;;;;14.35;6.38;;;14.90;99.90;;;;;;5011204;28;20154;-88
2021/06/28 03:59:17;;;;;;;12.73;5.63;;;14.90;99.90;;;;;;5004017;28;20478;-88
2021/06/28 04:01:43;;;;;;;16.05;5.05;;;14.90;99.90;;;;;;5009966;28;20049;-89
2021/06/28 04:04:09;;;;;;;10.85;5.65;;;15.00;99.90;;;;;;5012326;28;20535;-88
2021/06/28 04:06:35;;;;;;;14.77;6.93;;;15.00;99.90;;;;;;5010696;28;20121;-91
2021/06/28 04:09:02;;;;;;;9.70;5.80;;;15.10;99.90;;;;;;5023340;28;20050;-89
2021/06/28 04:11:29;;;;;;;13.55;5.40;;;15.10;99.90;;;;;;5011085;28;20049;-91
2021/06/28 04:13:56;;;;;;;9.02;5.00;;;15.20;99.90;;;;;;5011679;28;20371;-91
2021/06/28 04:16:22;;;;;;;11.55;5.88;;;15.20;99.90;;;;;;4995232;28;20045;-91
2021/06/28 04:18:49;;;;;;;14.40;5.63;;;15.30;99.90;;;;;;5008506;28;20058;-91
2021/06/28 04:21:14;;;;;;;8.65;5.03;;;15.30;99.90;;;;;;5009836;28;20045;-93
2021/06/28 04:23:40;;;;;;;8.05;4.68;;;15.40;99.90;;;;;;4991376;28;20371;-91
2021/06/28 04:26:06;;;;;;;10.25;5.32;;;15.40;99.90;;;;;;5010498;28;20139;-90
2021/06/28 04:28:32;;;;;;;11.32;5.47;;;15.40;99.90;;;;;;5010918;28;20042;-91
2021/06/28 04:30:58;;;;;;;12.77;5.80;;;15.40;99.90;;;;;;5011582;28;20069;-91
2021/06/28 04:33:24;;;;;;;13.63;5.15;;;15.50;99.90;;;;;;4994011;28;20046;-91
2021/06/28 04:35:50;;;;;;;14.05;5.53;;;15.50;99.90;;;;;;5010935;28;20038;-90
2021/06/28 04:38:17;;;;;;;8.52;4.80;;;15.60;99.90;;;;;;5026599;28;20049;-93
2021/06/28 04:40:43;;;;;;;12.85;6.05;;;15.70;99.90;;;;;;5011013;28;20065;-90
2021/06/28 04:43:08;;;;;;;11.80;4.80;;;15.70;99.90;;;;;;5011959;28;20077;-90
2021/06/28 04:45:34;;;;;;;11.30;4.70;;;15.90;99.90;;;;;;5007362;28;20038;-90
2021/06/28 04:48:00;;;;;;;7.25;4.25;;;16.00;99.90;;;;;;4989892;28;20136;-90
2021/06/28 04:50:26;;;;;;;7.30;3.58;;;16.00;99.90;;;;;;5010100;28;20053;-90
2021/06/28 04:52:54;;;;;;;12.88;4.38;;;16.20;99.90;;;;;;5010876;28;20042;-92
2021/06/28 04:55:21;;;;;;;5.53;3.80;;;16.30;99.90;;;;;;5028830;28;20111;-91
2021/06/28 04:57:49;;;;;;;16.52;4.18;;;16.30;99.90;;;;;;5017465;28;20513;-91
2021/06/28 05:00:18;;;;;;;19.73;4.78;;;16.40;99.90;;;;;;5033301;28;20045;-92
2021/06/28 05:02:44;;;;;;;5.68;3.17;;;16.50;99.90;;;;;;5033408;28;20054;-91
2021/06/28 05:05:12;;;;;;;9.57;3.83;;;16.60;99.90;;;;;;5033409;28;20042;-91
2021/06/28 05:07:38;;;;;;;5.75;2.72;;;16.70;99.90;;;;;;5016480;28;20123;-91
2021/06/28 05:10:05;;;;;;;5.07;3.22;;;16.80;99.90;;;;;;5001058;28;20491;-92
2021/06/28 05:12:31;;;;;;;4.70;3.47;;;16.90;99.90;;;;;;5000682;28;20045;-92
2021/06/28 05:14:57;;;;;;;6.03;3.25;;;17.00;99.90;;;;;;4998079;28;20379;-92
2021/06/28 05:17:24;;;;;;;9.23;3.50;;;17.10;99.90;;;;;;5011981;28;20192;-91
2021/06/28 05:19:51;;;;;;;9.45;3.63;;;17.20;99.90;;;;;;5001079;28;20485;-91
2021/06/28 05:22:17;;;;;;;5.57;3.65;;;17.20;99.90;;;;;;5015907;28;20058;-93
2021/06/28 05:24:43;;;;;;;11.18;4.22;;;17.20;99.90;;;;;;5010961;28;20046;-90
2021/06/28 05:27:09;;;;;;;7.47;3.70;;;17.30;99.90;;;;;;5023773;28;20153;-93
2021/06/28 05:29:35;;;;;;;7.63;3.40;;;17.30;99.90;;;;;;5001666;28;20052;-89
2021/06/28 05:32:01;;;;;;;10.18;3.70;;;17.40;99.90;;;;;;5016829;28;20042;-91
2021/06/28 05:34:27;;;;;;;7.28;3.08;;;17.50;99.90;;;;;;5016214;28;20070;-90
2021/06/28 05:36:52;;;;;;;5.03;3.13;;;17.50;99.90;;;;;;5005564;28;20041;-89
2021/06/28 05:39:18;;;;;;;7.78;2.72;;;17.70;99.90;;;;;;5016524;28;20042;-94
2021/06/28 05:41:44;;;;;;;8.75;3.45;;;17.80;99.90;;;;;;5000155;28;20048;-88
2021/06/28 05:44:10;;;;;;;4.20;2.85;;;17.90;99.90;;;;;;4999696;28;20041;-89
2021/06/28 05:46:36;;;;;;;7.07;2.70;;;18.00;99.90;;;;;;5016245;28;20056;-91
2021/06/28 05:49:02;;;;;;;10.23;4.15;;;18.10;99.90;;;;;;5017009;28;20054;-90
2021/06/28 05:51:28;;;;;;;7.63;3.03;;;18.20;99.90;;;;;;5019346;28;20050;-91
2021/06/28 05:53:54;;;;;;;7.35;3.30;;;18.30;99.90;;;;;;5021840;28;20085;-91
2021/06/28 05:56:20;;;;;;;8.50;4.18;;;18.40;99.90;;;;;;5017403;28;20069;-93
2021/06/28 05:58:45;;;;;;;7.00;3.30;;;18.50;99.90;;;;;;5006849;28;20038;-89
2021/06/28 06:01:12;;;;;;;6.65;3.45;;;18.60;99.90;;;;;;5013265;28;20042;-91
2021/06/28 06:03:38;;;;;;;7.40;3.20;;;18.70;99.90;;;;;;5014375;28;20041;-90
2021/06/28 06:06:05;;;;;;;7.63;3.25;;;18.90;99.90;;;;;;5027541;28;20057;-95
2021/06/28 06:08:31;;;;;;;8.15;3.33;;;19.00;99.90;;;;;;5018135;28;20074;-96
2021/06/28 06:10:58;;;;;;;9.30;3.03;;;19.10;99.90;;;;;;5021083;28;20149;-96
2021/06/28 06:13:26;;;;;;;7.38;3.15;;;19.20;99.90;;;;;;5013280;28;20038;-96
2021/06/28 06:15:53;;;;;;;6.20;3.50;;;19.30;99.90;;;;;;5012231;28;20054;-96
2021/06/28 06:18:19;;;;;;;3.78;3.10;;;19.30;99.90;;;;;;5032423;28;20528;-96
2021/06/28 06:20:47;;;;;;;5.93;3.00;;;19.30;99.90;;;;;;5027768;28;20077;-96
2021/06/28 06:23:15;;;;;;;6.97;3.15;;;19.40;99.90;;;;;;5015262;28;20053;-96
2021/06/28 06:25:42;;;;;;;4.82;3.17;;;19.50;99.90;;;;;;5031798;28;20057;-96
2021/06/28 06:28:08;;;;;;;5.53;3.30;;;19.60;99.90;;;;;;5015309;28;20088;-96
2021/06/28 06:30:34;;;;;;;10.50;3.78;;;19.80;99.90;;;;;;5019069;28;20042;-96
2021/06/28 06:33:04;;;;;;;5.32;3.80;;;19.80;99.90;;;;;;5038095;28;20099;-96
2021/06/28 06:35:31;;;;;;;6.97;4.00;;;19.80;99.90;;;;;;5014772;28;20129;-96
2021/06/28 06:37:59;;;;;;;7.28;2.78;;;20.00;99.90;;;;;;5020731;28;20045;-96
2021/06/28 06:40:26;;;;;;;6.35;3.60;;;20.00;99.90;;;;;;5037739;28;20404;-96
2021/06/28 06:42:53;;;;;;;8.98;3.53;;;20.10;99.90;;;;;;5014386;28;20127;-96
2021/06/28 06:45:21;;;;;;;5.95;3.40;;;20.20;99.90;;;;;;5041417;28;20133;-96
2021/06/28 06:47:47;;;;;;;7.50;4.63;;;20.30;99.90;;;;;;5028069;28;20432;-96
2021/06/28 06:50:14;;;;;;;8.63;3.65;;;20.30;99.90;;;;;;5017939;28;20534;-96
2021/06/28 06:52:41;;;;;;;11.82;4.25;;;20.40;99.90;;;;;;5035329;28;20076;-96
2021/06/28 06:55:08;;;;;;;7.55;3.90;;;20.40;99.90;;;;;;5018852;28;20055;-96
2021/06/28 06:57:37;;;;;;;8.82;3.90;;;20.40;99.90;;;;;;5035434;28;20041;-96
2021/06/28 07:00:16;;;;;;;12.25;4.00;;;20.40;99.90;;;;;;5028834;28;20053;-96
2021/06/28 07:02:42;;;;;;;10.70;4.05;;;20.50;99.90;;;;;;5021549;28;20045;-95
2021/06/28 07:05:09;;;;;;;8.75;4.43;;;20.50;99.90;;;;;;5024411;28;20053;-96
2021/06/28 07:07:40;;;;;;;8.25;3.70;;;20.50;99.90;;;;;;5019781;28;20140;-96
2021/06/28 07:10:11;;;;;;;7.07;4.10;;;20.50;99.90;;;;;;5019990;28;20512;-96
2021/06/28 07:12:39;;;;;;;5.43;3.88;;;20.40;99.90;;;;;;5019675;28;20485;-96
2021/06/28 07:15:06;;;;;;;9.93;4.07;;;20.30;99.90;;;;;;5034338;28;20042;-96
2021/06/28 07:17:32;;;;;;;10.23;4.50;;;20.30;99.90;;;;;;5018388;28;20031;-96
2021/06/28 07:19:59;;;;;;;5.72;3.60;;;20.30;99.90;;;;;;5016989;28;20400;-96
2021/06/28 07:22:33;;;;;;;7.70;4.38;;;20.30;99.90;;;;;;4990457;28;20079;-96
2021/06/28 07:25:02;;;;;;;9.30;4.35;;;20.40;99.90;;;;;;5021224;28;20044;-96
2021/06/28 07:27:29;;;;;;;8.18;3.83;;;20.40;99.90;;;;;;5024838;28;20049;-96
2021/06/28 07:29:55;;;;;;;6.70;3.70;;;20.40;99.90;;;;;;5014792;28;20041;-96
2021/06/28 07:32:21;;;;;;;6.93;4.70;;;20.50;99.90;;;;;;5023115;28;20041;-96
2021/06/28 07:34:50;;;;;;;6.18;4.63;;;20.50;99.90;;;;;;4996907;28;20103;-96
2021/06/28 07:37:16;;;;;;;4.90;4.38;;;20.50;99.90;;;;;;5034112;28;20049;-95
2021/06/28 07:39:42;;;;;;;6.80;4.75;;;20.60;99.90;;;;;;5018527;28;20045;-96
2021/06/28 07:42:08;;;;;;;5.20;4.70;;;20.70;99.90;;;;;;4991665;28;20053;-94
2021/06/28 07:44:35;;;;;;;6.50;4.82;;;20.70;99.90;;;;;;5033693;28;20045;-94
2021/06/28 07:47:01;;;;;;;7.25;5.38;;;20.80;99.90;;;;;;5034406;28;20054;-96
2021/06/28 07:49:27;;;;;;;7.57;5.25;;;20.80;99.90;;;;;;5017837;28;20477;-96
2021/06/28 07:51:53;;;;;;;9.10;5.47;;;20.80;99.90;;;;;;5020181;28;20041;-89
2021/06/28 07:54:20;;;;;;;9.20;5.05;;;20.90;99.90;;;;;;5012370;28;20060;-89
2021/06/28 07:56:46;;;;;;;10.70;6.30;;;20.90;99.90;;;;;;5013162;28;20401;-90
2021/06/28 07:59:12;;;;;;;5.55;5.05;;;20.90;99.90;;;;;;5012513;28;20060;-90
2021/06/28 08:01:38;;;;;;;9.02;5.45;;;21.00;99.90;;;;;;5015141;28;20049;-88
2021/06/28 08:04:04;;;;;;;8.48;5.93;;;21.00;99.90;;;;;;4986085;28;20101;-94
2021/06/28 08:06:30;;;;;;;7.30;5.65;;;21.00;99.90;;;;;;4983108;28;20045;-95
2021/06/28 08:08:56;;;;;;;5.93;5.25;;;21.10;99.90;;;;;;5007432;28;20131;-94
2021/06/28 08:11:24;;;;;;;6.00;4.82;;;21.10;99.90;;;;;;5019136;28;20041;-94
2021/06/28 08:13:51;;;;;;;8.88;5.82;;;21.20;99.90;;;;;;5014966;28;20508;-94
2021/06/28 08:16:19;;;;;;;9.70;5.32;;;21.30;99.90;;;;;;5034441;28;20050;-93
2021/06/28 08:18:48;;;;;;;7.38;5.38;;;21.30;99.90;;;;;;5016994;28;20047;-93
2021/06/28 08:21:15;;;;;;;10.57;5.50;;;21.40;99.90;;;;;;5035709;28;20540;-94
2021/06/28 08:23:42;;;;;;;6.57;5.88;;;21.40;99.90;;;;;;5014834;28;20029;-96
2021/06/28 08:26:08;;;;;;;6.68;5.65;;;21.50;99.90;;;;;;4998550;28;20057;-95
2021/06/28 08:28:34;;;;;;;6.78;6.07;;;21.50;99.90;;;;;;4998828;28;20045;-95
2021/06/28 08:31:00;;;;;;;9.35;6.18;;;21.60;99.90;;;;;;5002580;28;20047;-93
2021/06/28 08:33:25;;;;;;;10.30;5.95;;;21.70;99.90;;;;;;5035453;28;20084;-94
2021/06/28 08:35:51;;;;;;;7.95;6.20;;;21.80;99.90;;;;;;5030141;28;20431;-94
2021/06/28 08:38:17;;;;;;;7.85;5.90;;;21.90;99.90;;;;;;5020694;28;20056;-93
2021/06/28 08:40:43;;;;;;;7.93;5.75;;;21.90;99.90;;;;;;5018100;28;20078;-95
2021/06/28 08:43:09;;;;;;;12.43;5.70;;;22.00;99.90;;;;;;5018924;28;20536;-91
2021/06/28 08:45:42;;;;;;;7.55;6.32;;;22.10;99.90;;;;;;4993242;28;20512;-93
2021/06/28 08:48:08;;;;;;;6.38;5.65;;;22.30;99.90;;;;;;5031903;28;20064;-93
2021/06/28 08:50:37;;;;;;;5.72;4.97;;;22.30;99.90;;;;;;5036416;28;20041;-94
2021/06/28 08:53:04;;;;;;;8.45;5.88;;;22.50;99.90;;;;;;5037816;28;20087;-92
2021/06/28 08:55:30;;;;;;;6.70;5.80;;;22.60;99.90;;;;;;5022239;28;20485;-94
2021/06/28 08:57:56;;;;;;;8.55;5.78;;;22.60;99.90;;;;;;5017086;28;20087;-93
2021/06/28 09:00:23;;;;;;;10.27;6.30;;;22.70;99.90;;;;;;5007006;28;20099;-93
2021/06/28 09:02:54;;;;;;;9.70;5.85;;;22.80;99.90;;;;;;5013599;28;20511;-91
2021/06/28 09:05:21;;;;;;;8.40;5.65;;;22.90;99.90;;;;;;5032851;28;20050;-92
2021/06/28 09:07:47;;;;;;;7.05;5.32;;;23.00;99.90;;;;;;4999035;28;20120;-90
2021/06/28 09:10:34;;;;;;;6.20;5.60;;;23.10;99.90;;;;;;4999762;28;20121;-91
2021/06/28 09:13:00;;;;;;;6.63;5.82;;;23.10;99.90;;;;;;5013453;28;20060;-90
2021/06/28 09:15:35;;;;;;;8.90;6.22;;;23.20;99.90;;;;;;5014999;28;20073;-92
2021/06/28 09:18:25;;;;;;;7.85;6.28;;;23.20;99.90;;;;;;5030174;28;20126;-92
2021/06/28 09:21:04;;;;;;;6.55;5.95;;;23.30;99.90;;;;;;5029957;28;20120;-91
2021/06/28 09:23:31;;;;;;;7.70;7.00;;;23.30;99.90;;;;;;5013537;28;20042;-91
2021/06/28 09:25:59;;;;;;;8.18;6.32;;;23.30;99.90;;;;;;5014877;28;20041;-93
2021/06/28 09:28:31;;;;;;;6.90;6.22;;;23.20;99.90;;;;;;4997391;28;20079;-91
2021/06/28 09:30:58;;;;;;;8.68;5.80;;;23.30;99.90;;;;;;5030170;28;20029;-92
2021/06/28 09:33:24;;;;;;;7.05;6.07;;;23.40;99.90;;;;;;5011888;28;20110;-94
2021/06/28 09:35:50;;;;;;;7.53;6.07;;;23.50;99.90;;;;;;4999061;28;20112;-95
2021/06/28 09:38:37;;;;;;;8.75;7.05;;;23.60;99.90;;;;;;5005842;28;20845;-94
2021/06/28 09:41:23;;;;;;;6.85;6.15;;;23.70;99.90;;;;;;5021740;28;20033;-94
2021/06/28 09:43:51;;;;;;;5.78;5.20;;;23.80;99.90;;;;;;5009848;28;20041;-93
2021/06/28 09:46:19;;;;;;;7.32;6.32;;;23.80;99.90;;;;;;5021051;28;20040;-93
2021/06/28 09:48:52;;;;;;;6.00;5.40;;;23.90;99.90;;;;;;5035204;28;20056;-94
2021/06/28 09:51:29;;;;;;;7.68;6.72;;;24.00;99.90;;;;;;5019721;28;20124;-94
2021/06/28 09:54:08;;;;;;;9.68;6.35;;;24.10;99.90;;;;;;5040112;28;20072;-93
2021/06/28 09:56:38;;;;;;;6.23;5.43;;;24.20;99.90;;;;;;5032844;28;20042;-93
2021/06/28 09:59:21;;;;;;;7.25;5.80;;;24.30;99.90;;;;;;5039921;28;20060;-93
2021/06/28 10:01:48;;;;;;;9.15;6.50;;;24.40;99.90;;;;;;5033308;28;20294;-94
2021/06/28 10:04:48;;;;;;;6.20;5.60;;;24.50;99.90;;;;;;5004733;28;20072;-92
2021/06/28 10:07:27;;;;;;;;;;;24.60;99.90;;;;;;5017888;28;20045;-94
2021/06/28 10:10:16;;;;;;;7.93;6.20;;;24.70;99.90;;;;;;5016257;28;19921;-93
2021/06/28 10:12:57;;;;;;;9.38;5.68;;;24.80;99.90;;;;;;5013186;28;20426;-95
2021/06/28 10:15:32;;;;;;;6.13;5.53;;;24.80;99.90;;;;;;5028349;28;20046;-94
2021/06/28 10:17:58;;;;;;;7.07;5.13;;;24.90;99.90;;;;;;5016421;28;20051;-94
2021/06/28 10:20:28;;;;;;;10.60;6.50;;;24.90;99.90;;;;;;5033606;28;20080;-94
2021/06/28 10:22:55;;;;;;;6.75;6.15;;;24.90;99.90;;;;;;5032221;28;20041;-91
2021/06/28 10:25:22;;;;;;;6.90;5.80;;;24.80;99.90;;;;;;5014239;28;20042;-92
2021/06/28 10:27:49;;;;;;;10.05;7.18;;;24.80;99.90;;;;;;5016709;28;20118;-93
2021/06/28 10:30:17;;;;;;;7.28;6.50;;;24.80;99.90;;;;;;5000045;28;20045;-91
2021/06/28 10:32:45;;;;;;;9.50;5.70;;;24.80;99.90;;;;;;5017439;28;20038;-93
2021/06/28 10:35:21;;;;;;;6.50;5.80;;;24.90;99.90;;;;;;4998048;28;20120;-92
2021/06/28 10:37:48;;;;;;;6.95;6.30;;;24.90;99.90;;;;;;5018269;28;20052;-92
2021/06/28 10:40:21;;;;;;;4.82;4.47;;;24.90;99.90;;;;;;5011561;28;20060;-91
2021/06/28 10:42:50;;;;;;;6.18;5.28;;;25.10;99.90;;;;;;5030229;28;20088;-90
2021/06/28 10:45:35;;;;;;;5.47;4.65;;;25.30;99.90;;;;;;5031244;28;20044;-94
2021/06/28 10:48:14;;;;;;;5.18;4.65;;;25.40;99.90;;;;;;5016565;28;20050;-95
2021/06/28 10:50:59;;;;;;;4.90;4.40;;;25.60;99.90;;;;;;5012521;28;20042;-93
2021/06/28 10:53:34;;;;;;;3.67;3.33;;;25.70;99.90;;;;;;5011172;28;20048;-93
2021/06/28 10:58:58;;;;;;;7.78;4.30;;;25.90;99.90;;;;;;5015039;28;20041;-95
2021/06/28 11:01:38;;;;;;;5.68;3.85;;;25.90;99.90;;;;;;5012692;28;20042;-95
2021/06/28 11:04:10;;;;;;;3.70;2.90;;;26.00;99.90;;;;;;5013051;28;20037;-95
2021/06/28 11:06:43;;;;;;;4.65;3.60;;;26.10;99.90;;;;;;5010016;28;20070;-94
2021/06/28 11:09:11;;;;;;;4.88;4.10;;;26.20;99.90;;;;;;5018750;28;20161;-95
2021/06/28 11:11:43;;;;;;;4.30;4.00;;;26.30;99.90;;;;;;5010794;28;20046;-94
2021/06/28 11:14:18;;;;;;;4.63;4.13;;;26.30;99.90;;;;;;5010975;28;20217;-95
2021/06/28 11:17:06;;;;;;;10.10;5.65;;;26.30;99.90;;;;;;5011800;28;20505;-95
2021/06/28 11:22:34;;;;;;;3.88;3.47;;;26.50;99.90;;;;;;5011002;28;20049;-95
2021/06/28 11:25:03;;;;;;;2.63;2.42;;;26.50;99.90;;;;;;4997990;28;20042;-96
2021/06/28 11:27:29;;;;;;;3.50;3.20;;;26.50;99.90;;;;;;5010310;28;20779;-95
2021/06/28 11:29:55;;;;;;;3.00;2.80;;;26.60;99.90;;;;;;5011132;28;20477;-96
2021/06/28 11:32:29;;;;;;;7.80;6.65;;;26.60;99.90;;;;;;5011604;28;20045;-95
2021/06/28 11:34:58;;;;;;;12.00;6.70;;;26.50;99.90;;;;;;5010452;28;20048;-95
2021/06/28 11:37:25;;;;;;;10.15;6.35;;;26.10;99.90;;;;;;5010740;28;20049;-95
2021/06/28 11:40:04;;;;;;;13.32;6.95;;;25.70;99.90;;;;;;5018000;28;20093;-95
2021/06/28 11:42:37;;;;;;;12.10;8.13;;;25.50;99.90;;;;;;5008861;28;20041;-94
2021/06/28 11:45:12;;;;;;;10.98;7.18;;;25.20;99.90;;;;;;5026268;28;20074;-94
2021/06/28 11:47:44;;;;;;;12.38;6.55;;;24.80;99.90;;;;;;5013400;28;20109;-94
2021/06/28 11:50:31;;;;;;;10.77;6.10;;;24.60;99.90;;;;;;5028555;28;20588;-93
2021/06/28 11:53:01;;;;;;;10.13;6.38;;;24.40;99.90;;;;;;5030665;28;20056;-96
2021/06/28 11:55:29;;;;;;;9.23;5.80;;;24.40;99.90;;;;;;5008772;28;20041;-94
2021/06/28 11:57:56;;;;;;;9.90;5.30;;;24.40;99.90;;;;;;5004683;28;20049;-92
2021/06/28 12:00:22;;;;;;;11.95;5.72;;;24.50;99.90;;;;;;5020666;28;20045;-96
2021/06/28 12:03:26;;;;;;;11.05;6.18;;;24.60;99.90;;;;;;4997978;28;20058;-94
2021/06/28 12:05:52;;;;;;;20.38;6.47;;;24.50;99.90;;;;;;5006953;28;20103;-92
2021/06/28 12:08:24;;;;;;;14.10;5.63;;;24.40;99.90;;;;;;5027395;28;20045;-92
2021/06/28 12:10:56;;;;;;;13.25;5.47;;;24.50;99.90;;;;;;5009524;28;20041;-94
2021/06/28 12:13:48;;;;;;;9.80;6.03;;;24.80;99.90;;;;;;5016154;28;20053;-94
2021/06/28 12:16:26;;;;;;;9.70;6.30;;;24.90;99.90;;;;;;4987989;28;20303;-93
2021/06/28 12:19:09;;;;;;;19.65;6.43;;;24.90;99.90;;;;;;4988236;28;20081;-95
2021/06/28 12:21:39;;;;;;;14.77;5.60;;;24.70;99.90;;;;;;5006239;28;20046;-94
2021/06/28 12:24:23;;;;;;;10.93;6.00;;;24.70;99.90;;;;;;4997524;28;20120;-95
2021/06/28 12:27:07;;;;;;;12.68;6.22;;;24.70;99.90;;;;;;4998448;28;20110;-94
2021/06/28 12:29:46;;;;;;;14.88;5.63;;;24.60;99.90;;;;;;5028186;28;20045;-95
2021/06/28 12:32:14;;;;;;;15.93;6.20;;;24.80;99.90;;;;;;5013695;28;20049;-95
2021/06/28 12:34:54;;;;;;;24.33;7.50;;;24.90;99.90;;;;;;4998734;28;20045;-95
2021/06/28 12:37:29;;;;;;;16.20;5.97;;;25.20;99.90;;;;;;5003535;28;20132;-93
2021/06/28 12:40:20;;;;;;;12.73;5.78;;;25.30;99.90;;;;;;5021516;28;20072;-96
2021/06/28 12:43:15;;;;;;;14.27;5.78;;;25.20;99.90;;;;;;5002048;28;20396;-95
2021/06/28 12:45:45;;;;;;;13.82;5.35;;;25.20;99.90;;;;;;5001122;28;20103;-94
2021/06/28 12:48:21;;;;;;;17.83;6.40;;;25.40;99.90;;;;;;5011452;28;20049;-96
2021/06/28 12:50:56;;;;;;;18.52;4.90;;;25.50;99.90;;;;;;5014073;28;20045;-95
2021/06/28 12:53:23;;;;;;;14.63;5.78;;;25.80;99.90;;;;;;4997632;28;20053;-96
2021/06/28 12:56:01;;;;;;;24.98;6.60;;;26.20;99.90;;;;;;5008823;28;20052;-95
2021/06/28 12:58:45;;;;;;;17.30;5.00;;;26.00;99.90;;;;;;5016517;28;20473;-95